Time;durP1;ratioP1;P1;durP2;ratioP2;P2;SDS_P1;SDS_P2;PMS_P1;PMS_P2;Temp;Humidity;BMP_temperature;BMP_pressure;BME280_temperature;BME280_humidity;BME280_pressure;Samples;Min_cycle;Max_cycle;Signal;HPM_P1;HPM_P2
2022/09/07 00:00:56;;;;;;;1.95;1.50;;;9.00;99.90;;;;;;4924433;29;20414;-85
2022/09/07 00:03:24;;;;;;;2.10;1.47;;;8.80;99.90;;;;;;4935357;29;20421;-85
2022/09/07 00:05:52;;;;;;;2.28;1.48;;;8.70;99.90;;;;;;4925333;29;20406;-84
2022/09/07 00:08:23;;;;;;;2.45;1.92;;;8.70;99.90;;;;;;4926012;29;20504;-84
2022/09/07 00:11:02;;;;;;;2.58;1.73;;;8.80;99.90;;;;;;4935245;29;20469;-84
2022/09/07 00:13:32;;;;;;;3.58;1.88;;;8.80;99.90;;;;;;4935282;29;20476;-84
2022/09/07 00:16:12;;;;;;;2.88;2.10;;;8.70;99.90;;;;;;4935033;29;20449;-84
2022/09/07 00:18:40;;;;;;;4.93;2.30;;;8.70;99.90;;;;;;4917834;29;20416;-84
2022/09/07 00:21:14;;;;;;;3.20;2.08;;;8.80;99.90;;;;;;4932184;29;20403;-84
2022/09/07 00:23:42;;;;;;;3.15;1.88;;;8.70;99.90;;;;;;4933701;29;20446;-83
2022/09/07 00:26:14;;;;;;;2.97;2.00;;;8.60;99.90;;;;;;4934212;29;20880;-84
2022/09/07 00:28:43;;;;;;;4.28;2.00;;;8.70;99.90;;;;;;4933568;29;20418;-83
2022/09/07 00:31:16;;;;;;;2.83;1.88;;;8.70;99.90;;;;;;4930605;29;20419;-83
2022/09/07 00:33:45;;;;;;;2.70;1.80;;;8.80;99.90;;;;;;4934727;29;20405;-84
2022/09/07 00:36:13;;;;;;;2.90;2.03;;;8.70;99.90;;;;;;4923271;29;20964;-84
2022/09/07 00:38:41;;;;;;;5.15;2.10;;;8.80;99.90;;;;;;4920114;29;20426;-84
2022/09/07 00:41:09;;;;;;;3.72;2.22;;;8.70;99.90;;;;;;4943617;29;20449;-83
2022/09/07 00:43:41;;;;;;;3.45;1.90;;;8.80;99.90;;;;;;4927742;29;21074;-84
2022/09/07 00:46:22;;;;;;;2.90;2.00;;;8.80;99.90;;;;;;4914852;29;20489;-84
2022/09/07 00:49:11;;;;;;;2.65;1.80;;;8.90;99.90;;;;;;4925198;29;20399;-83
2022/09/07 00:51:56;;;;;;;3.90;2.10;;;8.80;99.90;;;;;;4948633;29;20405;-84
2022/09/07 00:54:31;;;;;;;3.63;1.92;;;8.70;99.90;;;;;;4934415;29;20400;-84
2022/09/07 00:56:59;;;;;;;2.88;1.95;;;8.60;99.90;;;;;;4934499;29;20413;-85
2022/09/07 00:59:33;;;;;;;4.75;1.85;;;8.60;99.90;;;;;;4939293;29;20456;-84
2022/09/07 01:02:02;;;;;;;3.33;2.20;;;8.70;99.90;;;;;;4934170;29;20443;-85
2022/09/07 01:04:31;;;;;;;2.63;1.90;;;8.60;99.90;;;;;;4917303;29;20420;-84
2022/09/07 01:07:02;;;;;;;3.70;1.88;;;8.50;99.90;;;;;;4939116;29;20444;-85
2022/09/07 01:09:30;;;;;;;2.47;1.70;;;8.50;99.90;;;;;;4920277;29;20415;-85
2022/09/07 01:11:59;;;;;;;3.07;1.93;;;8.50;99.90;;;;;;4940730;29;20409;-85
2022/09/07 01:14:33;;;;;;;4.20;1.83;;;8.50;99.90;;;;;;4923267;29;20411;-84
2022/09/07 01:17:46;;;;;;;3.17;2.20;;;8.50;99.90;;;;;;4932929;29;20476;-84
2022/09/07 01:20:49;;;;;;;3.72;1.77;;;8.50;99.90;;;;;;4913132;29;20425;-84
2022/09/07 01:23:35;;;;;;;2.70;1.80;;;8.60;99.90;;;;;;4922999;29;20428;-84
2022/09/07 01:26:17;;;;;;;3.03;1.85;;;8.50;99.90;;;;;;4916309;29;20521;-84
2022/09/07 01:28:50;;;;;;;3.30;1.75;;;8.50;99.90;;;;;;4948503;28;20498;-84
2022/09/07 01:31:40;;;;;;;2.28;1.70;;;8.50;99.90;;;;;;4933452;29;20937;-84
2022/09/07 01:34:27;;;;;;;2.70;1.90;;;8.50;99.90;;;;;;4933903;29;20735;-84
2022/09/07 01:37:18;;;;;;;2.63;1.60;;;8.60;99.90;;;;;;4932999;29;20426;-85
2022/09/07 01:40:29;;;;;;;3.65;1.70;;;8.60;99.90;;;;;;4924273;29;20405;-85
2022/09/07 01:43:03;;;;;;;2.88;1.70;;;8.50;99.90;;;;;;4926411;29;20778;-85
2022/09/07 01:45:34;;;;;;;2.78;1.60;;;8.60;99.90;;;;;;4924534;29;20473;-85
2022/09/07 01:48:06;;;;;;;3.42;1.52;;;8.60;99.90;;;;;;4927086;29;20441;-84
2022/09/07 01:50:44;;;;;;;3.50;1.60;;;8.60;99.90;;;;;;4918062;29;20408;-84
2022/09/07 01:53:22;;;;;;;4.45;1.77;;;8.60;99.90;;;;;;4933824;29;20397;-85
2022/09/07 01:56:26;;;;;;;4.30;1.67;;;8.60;99.90;;;;;;4924090;29;20401;-84
2022/09/07 01:59:04;;;;;;;3.37;1.70;;;8.50;99.90;;;;;;4929595;29;20509;-84
2022/09/07 02:01:39;;;;;;;1.93;1.47;;;8.50;99.90;;;;;;4938767;29;20416;-84
2022/09/07 02:04:12;;;;;;;2.20;1.55;;;8.40;99.90;;;;;;4933617;29;20421;-84
2022/09/07 02:07:19;;;;;;;2.28;1.50;;;8.50;99.90;;;;;;4933335;29;20409;-84
2022/09/07 02:09:57;;;;;;;2.55;1.25;;;8.50;99.90;;;;;;4930946;29;20987;-83
2022/09/07 02:12:37;;;;;;;2.55;1.40;;;8.50;99.90;;;;;;4942497;29;20486;-84
2022/09/07 02:15:11;;;;;;;2.53;1.45;;;8.60;99.90;;;;;;4942155;29;20446;-83
2022/09/07 02:17:43;;;;;;;2.40;1.40;;;8.60;99.90;;;;;;4937300;29;20416;-84
2022/09/07 02:20:21;;;;;;;2.30;1.50;;;8.60;99.90;;;;;;4936040;29;21055;-84
2022/09/07 02:22:56;;;;;;;3.22;1.50;;;8.60;99.90;;;;;;4937229;29;20912;-84
2022/09/07 02:25:28;;;;;;;2.75;1.40;;;8.60;99.90;;;;;;4944955;29;20892;-85
2022/09/07 02:28:03;;;;;;;2.60;1.30;;;8.60;99.90;;;;;;4943761;28;20409;-84
2022/09/07 02:30:31;;;;;;;2.05;1.30;;;8.70;99.90;;;;;;4924465;29;21039;-84
2022/09/07 02:32:59;;;;;;;3.00;1.43;;;8.60;99.90;;;;;;4934196;29;20421;-84
2022/09/07 02:35:27;;;;;;;3.70;1.30;;;8.60;99.90;;;;;;4925372;29;20398;-82
2022/09/07 02:37:57;;;;;;;2.25;1.20;;;8.60;99.90;;;;;;4937233;29;20406;-84
2022/09/07 02:40:25;;;;;;;2.00;1.15;;;8.60;99.90;;;;;;4930114;29;20846;-85
2022/09/07 02:42:53;;;;;;;2.63;1.30;;;8.60;99.90;;;;;;4935734;29;20724;-85
2022/09/07 02:45:21;;;;;;;2.05;1.30;;;8.60;99.90;;;;;;4928450;29;20885;-84
2022/09/07 02:47:54;;;;;;;2.65;1.38;;;8.60;99.90;;;;;;4950080;28;20904;-85
2022/09/07 02:50:37;;;;;;;3.55;1.20;;;8.60;99.90;;;;;;4921681;29;20408;-84
2022/09/07 02:53:24;;;;;;;2.05;1.23;;;8.60;99.90;;;;;;4920072;29;20402;-83
2022/09/07 02:56:30;;;;;;;2.50;1.30;;;8.50;99.90;;;;;;4937724;29;20406;-84
2022/09/07 02:59:02;;;;;;;1.55;1.25;;;8.50;99.90;;;;;;4933823;29;20408;-84
2022/09/07 03:01:59;;;;;;;3.90;1.20;;;8.50;99.90;;;;;;4930704;29;20414;-83
2022/09/07 03:04:46;;;;;;;2.88;1.42;;;8.40;99.90;;;;;;4923695;29;20463;-83
2022/09/07 03:07:27;;;;;;;1.63;1.13;;;8.50;99.90;;;;;;4950460;28;20465;-83
2022/09/07 03:09:57;;;;;;;2.20;1.25;;;8.40;99.90;;;;;;4925408;29;20416;-83
2022/09/07 03:12:43;;;;;;;1.75;1.20;;;8.50;99.90;;;;;;4936604;29;20455;-84
2022/09/07 03:15:21;;;;;;;1.98;1.30;;;8.50;99.90;;;;;;4929910;29;20432;-83
2022/09/07 03:17:49;;;;;;;3.50;1.30;;;8.40;99.90;;;;;;4935015;29;20505;-84
2022/09/07 03:20:18;;;;;;;2.28;1.33;;;8.40;99.90;;;;;;4922760;29;20794;-83
2022/09/07 03:22:47;;;;;;;2.80;1.40;;;8.40;99.90;;;;;;4949269;29;20429;-83
2022/09/07 03:25:15;;;;;;;1.40;1.15;;;8.40;99.90;;;;;;4934137;29;20414;-84
2022/09/07 03:27:43;;;;;;;1.88;1.23;;;8.40;99.90;;;;;;4920013;29;20766;-84
2022/09/07 03:30:12;;;;;;;1.90;1.25;;;8.60;99.90;;;;;;4932205;29;20443;-84
2022/09/07 03:32:40;;;;;;;1.95;1.30;;;8.60;99.90;;;;;;4927064;29;20427;-84
2022/09/07 03:35:08;;;;;;;1.90;1.17;;;8.50;99.90;;;;;;4933123;29;20799;-84
2022/09/07 03:37:37;;;;;;;2.65;1.20;;;8.50;99.90;;;;;;4929191;29;20414;-84
2022/09/07 03:40:07;;;;;;;2.20;1.05;;;8.50;99.90;;;;;;4944955;29;20492;-84
2022/09/07 03:42:36;;;;;;;2.30;1.10;;;8.50;99.90;;;;;;4934757;29;20832;-85
2022/09/07 03:45:05;;;;;;;1.70;1.10;;;8.50;99.90;;;;;;4935527;29;20409;-84
2022/09/07 03:47:34;;;;;;;2.85;1.30;;;8.50;99.90;;;;;;4940339;28;20421;-85
2022/09/07 03:50:03;;;;;;;1.77;1.08;;;8.60;99.90;;;;;;4931335;29;20415;-84
2022/09/07 03:52:31;;;;;;;1.60;1.10;;;8.60;99.90;;;;;;4927678;29;20478;-84
2022/09/07 03:54:59;;;;;;;1.97;1.33;;;8.60;99.90;;;;;;4935609;29;20436;-83
2022/09/07 03:57:27;;;;;;;1.88;1.10;;;8.60;99.90;;;;;;4935427;29;20410;-83
2022/09/07 03:59:54;;;;;;;2.22;1.30;;;8.60;99.90;;;;;;4917957;29;20400;-83
2022/09/07 04:02:22;;;;;;;2.47;1.02;;;8.60;99.90;;;;;;4931465;29;20429;-84
2022/09/07 04:04:50;;;;;;;1.50;1.10;;;8.60;99.90;;;;;;4925444;29;20459;-83
2022/09/07 04:07:18;;;;;;;2.72;1.17;;;8.60;99.90;;;;;;4928435;29;20410;-83
2022/09/07 04:09:45;;;;;;;2.90;1.10;;;8.60;99.90;;;;;;4927619;29;20445;-83
2022/09/07 04:12:13;;;;;;;1.52;1.20;;;8.60;99.90;;;;;;4935182;29;20405;-84
2022/09/07 04:14:41;;;;;;;1.50;1.38;;;8.60;99.90;;;;;;4934807;29;20413;-84
2022/09/07 04:17:08;;;;;;;2.10;1.20;;;8.60;99.90;;;;;;4934239;29;20402;-83
2022/09/07 04:19:36;;;;;;;2.53;1.10;;;8.70;99.90;;;;;;4938316;29;20497;-85
2022/09/07 04:22:04;;;;;;;3.88;1.33;;;8.70;99.90;;;;;;4930142;29;20415;-85
2022/09/07 04:24:32;;;;;;;2.33;1.30;;;8.70;99.90;;;;;;4930341;29;20935;-85
2022/09/07 04:27:00;;;;;;;2.45;1.42;;;8.70;99.90;;;;;;4925479;29;20738;-83
2022/09/07 04:29:28;;;;;;;2.42;1.30;;;8.80;99.90;;;;;;4934952;29;20405;-83
2022/09/07 04:31:56;;;;;;;2.00;1.40;;;8.80;99.90;;;;;;4939518;28;20810;-84
2022/09/07 04:34:24;;;;;;;2.10;1.20;;;8.70;99.90;;;;;;4934906;29;20900;-84
2022/09/07 04:36:51;;;;;;;3.40;1.30;;;8.70;99.90;;;;;;4923626;29;20453;-84
2022/09/07 04:39:19;;;;;;;3.60;1.27;;;8.70;99.90;;;;;;4923831;29;20827;-83
2022/09/07 04:41:47;;;;;;;2.15;1.38;;;8.70;99.90;;;;;;4924402;29;20442;-84
2022/09/07 04:44:14;;;;;;;2.65;1.30;;;8.70;99.90;;;;;;4934464;29;21012;-84
2022/09/07 04:46:43;;;;;;;2.45;1.38;;;8.60;99.90;;;;;;4940772;29;20944;-84
2022/09/07 04:49:11;;;;;;;4.67;2.10;;;8.70;99.90;;;;;;4943365;29;20806;-84
2022/09/07 04:51:43;;;;;;;2.70;1.53;;;8.70;99.90;;;;;;4927781;29;20407;-84
2022/09/07 04:54:11;;;;;;;3.17;1.50;;;8.60;99.90;;;;;;4923625;29;20502;-84
2022/09/07 04:56:38;;;;;;;3.60;1.65;;;8.60;99.90;;;;;;4934459;29;20476;-84
2022/09/07 04:59:06;;;;;;;1.40;1.30;;;8.70;99.90;;;;;;4934391;29;20452;-84
2022/09/07 05:01:34;;;;;;;2.67;1.50;;;8.70;99.90;;;;;;4924686;29;20398;-85
2022/09/07 05:04:03;;;;;;;2.65;1.52;;;8.70;99.90;;;;;;4933470;29;20641;-85
2022/09/07 05:06:31;;;;;;;2.97;1.60;;;8.70;99.90;;;;;;4931816;29;20958;-83
2022/09/07 05:08:59;;;;;;;3.22;1.60;;;8.70;99.90;;;;;;4932958;29;20417;-84
2022/09/07 05:11:27;;;;;;;3.67;1.60;;;8.70;99.90;;;;;;4923493;29;20433;-84
2022/09/07 05:13:57;;;;;;;2.42;1.50;;;8.60;99.90;;;;;;4933949;29;20425;-83
2022/09/07 05:16:27;;;;;;;2.60;1.70;;;8.60;99.90;;;;;;4933088;29;20390;-84
2022/09/07 05:19:00;;;;;;;2.73;1.73;;;8.70;99.90;;;;;;4933218;29;20485;-86
2022/09/07 05:21:33;;;;;;;2.22;1.55;;;8.70;99.90;;;;;;4948128;29;20459;-83
2022/09/07 05:24:01;;;;;;;3.35;1.67;;;8.80;99.90;;;;;;4948263;28;20858;-83
2022/09/07 05:26:31;;;;;;;3.15;1.75;;;8.70;99.90;;;;;;4931431;29;20465;-84
2022/09/07 05:29:03;;;;;;;3.40;1.70;;;8.80;99.90;;;;;;4930963;29;20798;-86
2022/09/07 05:31:50;;;;;;;2.85;1.50;;;8.80;99.90;;;;;;4931634;29;20979;-85
2022/09/07 05:34:18;;;;;;;2.67;1.60;;;8.80;99.90;;;;;;4924441;29;20395;-85
2022/09/07 05:37:02;;;;;;;1.90;1.60;;;8.70;99.90;;;;;;4926615;29;20663;-85
2022/09/07 05:39:29;;;;;;;2.63;1.73;;;8.70;99.90;;;;;;4933930;29;20402;-85
2022/09/07 05:41:57;;;;;;;2.00;1.30;;;8.80;99.90;;;;;;4929002;29;20961;-84
2022/09/07 05:44:25;;;;;;;2.33;1.50;;;8.80;99.90;;;;;;4932920;29;20913;-85
2022/09/07 05:47:08;;;;;;;2.08;1.70;;;8.80;99.90;;;;;;4933781;29;20457;-85
2022/09/07 05:49:36;;;;;;;3.22;1.58;;;8.90;99.90;;;;;;4934016;29;20409;-85
2022/09/07 05:52:04;;;;;;;2.95;1.80;;;8.80;99.90;;;;;;4924204;29;20449;-85
2022/09/07 05:54:32;;;;;;;2.53;1.60;;;8.90;99.90;;;;;;4933807;29;20393;-85
2022/09/07 05:57:02;;;;;;;3.42;1.95;;;8.90;99.90;;;;;;4933998;29;20761;-85
2022/09/07 05:59:30;;;;;;;2.53;1.80;;;8.80;99.90;;;;;;4933783;29;20418;-85
2022/09/07 06:01:57;;;;;;;4.43;1.80;;;8.90;99.90;;;;;;4922839;29;20419;-84
2022/09/07 06:04:25;;;;;;;2.67;1.80;;;8.90;99.90;;;;;;4940308;28;20445;-84
2022/09/07 06:06:53;;;;;;;3.03;1.70;;;8.90;99.90;;;;;;4933755;29;20422;-84
2022/09/07 06:09:41;;;;;;;3.20;1.98;;;9.00;99.90;;;;;;4924035;29;20488;-85
2022/09/07 06:12:29;;;;;;;5.40;2.20;;;9.00;99.90;;;;;;4945467;28;20916;-84
2022/09/07 06:14:56;;;;;;;2.58;1.77;;;9.10;99.90;;;;;;4922457;29;20438;-83
2022/09/07 06:17:24;;;;;;;3.20;2.00;;;9.00;99.90;;;;;;4927994;29;20493;-85
2022/09/07 06:19:52;;;;;;;3.55;2.17;;;9.10;99.90;;;;;;4937289;29;20490;-85
2022/09/07 06:22:20;;;;;;;3.80;1.80;;;9.20;99.90;;;;;;4945290;28;20783;-85
2022/09/07 06:24:48;;;;;;;4.13;2.50;;;9.10;99.90;;;;;;4931437;29;20940;-85
2022/09/07 06:27:16;;;;;;;2.80;1.90;;;9.10;99.90;;;;;;4922870;29;20420;-85
2022/09/07 06:29:43;;;;;;;3.40;2.00;;;9.20;99.90;;;;;;4929240;29;20419;-85
2022/09/07 06:32:11;;;;;;;3.47;2.20;;;9.30;99.90;;;;;;4926420;29;20410;-84
2022/09/07 06:34:59;;;;;;;3.33;2.10;;;9.30;99.90;;;;;;4925958;29;20489;-85
2022/09/07 06:37:27;;;;;;;2.80;1.92;;;9.30;99.90;;;;;;4933468;29;20401;-85
2022/09/07 06:39:54;;;;;;;6.53;2.30;;;9.40;99.90;;;;;;4919333;29;20414;-84
2022/09/07 06:42:22;;;;;;;4.30;2.20;;;9.40;99.90;;;;;;4927109;29;20416;-84
2022/09/07 06:44:52;;;;;;;3.30;2.10;;;9.50;99.90;;;;;;4924682;29;20417;-85
2022/09/07 06:47:19;;;;;;;4.13;1.80;;;9.60;99.90;;;;;;4927487;29;20419;-85
2022/09/07 06:49:47;;;;;;;3.00;1.80;;;9.70;99.90;;;;;;4944720;29;20975;-85
2022/09/07 06:52:15;;;;;;;4.63;2.03;;;9.70;99.90;;;;;;4944821;28;20408;-85
2022/09/07 06:54:43;;;;;;;2.92;1.85;;;9.80;99.90;;;;;;4947032;28;20483;-86
2022/09/07 06:57:28;;;;;;;2.88;1.70;;;9.80;99.90;;;;;;4925476;29;20569;-84
2022/09/07 06:59:57;;;;;;;2.75;1.75;;;9.90;99.90;;;;;;4928786;29;20842;-84
2022/09/07 07:02:25;;;;;;;2.63;1.73;;;9.90;99.90;;;;;;4935549;29;20406;-85
2022/09/07 07:04:52;;;;;;;3.05;1.80;;;10.00;99.90;;;;;;4929785;29;20410;-83
2022/09/07 07:07:20;;;;;;;3.15;1.98;;;10.10;99.90;;;;;;4932511;29;20777;-84
2022/09/07 07:09:49;;;;;;;2.67;1.83;;;10.10;99.90;;;;;;4925174;29;20501;-86
2022/09/07 07:12:17;;;;;;;2.35;1.70;;;10.20;99.90;;;;;;4935198;29;20422;-85
2022/09/07 07:14:43;;;;;;;2.25;1.85;;;10.20;99.90;;;;;;4925172;29;20406;-83
2022/09/07 07:17:12;;;;;;;3.25;1.60;;;10.30;99.90;;;;;;4927782;29;20781;-85
2022/09/07 07:19:40;;;;;;;3.95;1.80;;;10.40;99.90;;;;;;4925191;29;20446;-85
2022/09/07 07:22:07;;;;;;;2.22;1.63;;;10.40;99.90;;;;;;4924448;29;20426;-84
2022/09/07 07:24:56;;;;;;;2.70;1.85;;;10.50;99.90;;;;;;4924950;29;20416;-85
2022/09/07 07:27:24;;;;;;;2.93;1.77;;;10.50;99.90;;;;;;4940671;29;20421;-83
2022/09/07 07:29:52;;;;;;;3.42;2.15;;;10.50;99.90;;;;;;4926798;29;20803;-84
2022/09/07 07:32:20;;;;;;;4.30;1.90;;;10.60;99.90;;;;;;4929864;29;20910;-86
2022/09/07 07:34:48;;;;;;;4.55;2.10;;;10.70;99.90;;;;;;4945895;28;20418;-84
2022/09/07 07:37:16;;;;;;;3.80;1.67;;;10.70;99.90;;;;;;4944882;29;20491;-84
2022/09/07 07:39:43;;;;;;;3.33;1.80;;;10.80;99.90;;;;;;4932543;29;20440;-85
2022/09/07 07:42:32;;;;;;;3.93;1.60;;;10.90;99.90;;;;;;4921109;29;20420;-84
2022/09/07 07:45:01;;;;;;;3.33;1.60;;;11.10;99.90;;;;;;4935894;29;20897;-85
2022/09/07 07:47:52;;;;;;;3.97;1.63;;;11.10;99.90;;;;;;4934436;29;20472;-84
2022/09/07 07:50:20;;;;;;;3.25;1.50;;;11.10;99.90;;;;;;4919153;29;20415;-83
2022/09/07 07:53:04;;;;;;;3.80;1.60;;;11.20;99.90;;;;;;4936660;29;20402;-83
2022/09/07 07:55:52;;;;;;;2.10;1.50;;;11.30;99.90;;;;;;4947288;28;20414;-84
2022/09/07 07:58:23;;;;;;;2.65;1.40;;;11.20;99.90;;;;;;4924223;29;20402;-85
2022/09/07 08:00:50;;;;;;;4.40;1.37;;;11.30;99.90;;;;;;4920465;29;20415;-85
2022/09/07 08:03:24;;;;;;;1.98;1.40;;;11.30;99.90;;;;;;4935441;29;20512;-85
2022/09/07 08:05:53;;;;;;;1.65;1.20;;;11.40;99.90;;;;;;4918452;29;20799;-84
2022/09/07 08:08:22;;;;;;;3.45;1.60;;;11.50;99.90;;;;;;4924828;29;20423;-84
2022/09/07 08:10:49;;;;;;;3.10;1.40;;;11.60;99.90;;;;;;4930803;29;20424;-85
2022/09/07 08:13:18;;;;;;;3.40;1.50;;;11.60;99.90;;;;;;4926889;29;20406;-85
2022/09/07 08:15:45;;;;;;;2.70;1.45;;;11.50;99.90;;;;;;4922144;29;20414;-85
2022/09/07 08:18:15;;;;;;;1.90;1.30;;;11.40;99.90;;;;;;4930732;29;20414;-85
2022/09/07 08:20:43;;;;;;;1.90;1.40;;;11.50;99.90;;;;;;4934019;29;20754;-85
2022/09/07 08:23:11;;;;;;;5.32;1.63;;;11.40;99.90;;;;;;4935138;29;20416;-83
2022/09/07 08:25:54;;;;;;;2.22;1.30;;;11.40;99.90;;;;;;4934634;29;20511;-83
2022/09/07 08:28:24;;;;;;;3.13;1.40;;;11.40;99.90;;;;;;4919704;29;20407;-85
2022/09/07 08:30:52;;;;;;;2.88;1.40;;;11.40;99.90;;;;;;4933685;29;20414;-84
2022/09/07 08:33:20;;;;;;;2.25;1.42;;;11.40;99.90;;;;;;4928124;29;20426;-85
2022/09/07 08:36:15;;;;;;;4.13;1.40;;;11.30;99.90;;;;;;4933182;29;20422;-85
2022/09/07 08:38:43;;;;;;;3.03;1.50;;;11.40;99.90;;;;;;4940874;28;20406;-84
2022/09/07 08:41:42;;;;;;;3.57;1.63;;;11.40;99.90;;;;;;4941453;29;20827;-84
2022/09/07 08:44:47;;;;;;;2.22;1.50;;;11.50;99.90;;;;;;4937953;29;20411;-84
2022/09/07 08:47:37;;;;;;;2.33;1.35;;;11.50;99.90;;;;;;4940666;29;20932;-84
2022/09/07 08:50:20;;;;;;;3.10;1.67;;;11.60;99.90;;;;;;4949660;28;20473;-85
2022/09/07 08:53:03;;;;;;;2.92;1.40;;;11.70;99.90;;;;;;4934643;29;20432;-84
2022/09/07 08:55:39;;;;;;;3.97;1.48;;;11.80;99.90;;;;;;4947795;29;20413;-85
2022/09/07 08:58:19;;;;;;;2.58;1.60;;;11.90;99.90;;;;;;4931644;29;20793;-85
2022/09/07 09:01:36;;;;;;;2.72;1.52;;;11.80;99.90;;;;;;4932323;29;20414;-85
2022/09/07 09:04:23;;;;;;;2.30;1.30;;;11.80;99.90;;;;;;4930485;28;20458;-84
2022/09/07 09:07:17;;;;;;;2.58;1.50;;;11.80;99.90;;;;;;4931838;29;20469;-85
2022/09/07 09:10:04;;;;;;;3.50;1.50;;;11.80;99.90;;;;;;4922243;29;20418;-85
2022/09/07 09:12:51;;;;;;;1.67;1.40;;;11.80;99.90;;;;;;4930382;29;20953;-84
2022/09/07 09:15:25;;;;;;;3.73;1.77;;;11.90;99.90;;;;;;4917619;29;20416;-84
2022/09/07 09:18:21;;;;;;;2.60;1.50;;;12.10;99.90;;;;;;4917628;29;20424;-84
2022/09/07 09:20:56;;;;;;;2.42;1.33;;;12.10;99.90;;;;;;4930634;28;20417;-85
2022/09/07 09:23:27;;;;;;;2.03;1.33;;;12.10;99.90;;;;;;4923412;29;20786;-85
2022/09/07 09:25:56;;;;;;;1.90;1.30;;;12.20;99.90;;;;;;4939111;29;20423;-85
2022/09/07 09:28:24;;;;;;;2.60;1.25;;;12.20;99.90;;;;;;4938567;29;20499;-84
2022/09/07 09:30:58;;;;;;;2.83;1.30;;;12.20;99.90;;;;;;4944461;28;20918;-84
2022/09/07 09:33:27;;;;;;;2.33;1.20;;;12.30;99.90;;;;;;4930791;29;20410;-84
2022/09/07 09:35:59;;;;;;;2.45;1.23;;;12.30;99.90;;;;;;4947445;28;20497;-85
2022/09/07 09:38:33;;;;;;;1.98;1.20;;;12.40;99.90;;;;;;4932856;29;20500;-85
2022/09/07 09:41:14;;;;;;;2.50;1.30;;;12.50;99.90;;;;;;4933106;29;20935;-85
2022/09/07 09:43:54;;;;;;;1.95;1.20;;;12.50;99.90;;;;;;4922959;29;20843;-85
2022/09/07 09:46:28;;;;;;;1.73;1.15;;;12.70;99.90;;;;;;4915985;29;20926;-84
2022/09/07 09:48:59;;;;;;;2.30;1.20;;;12.60;99.90;;;;;;4934086;29;20397;-84
2022/09/07 09:51:31;;;;;;;2.05;1.00;;;12.60;99.90;;;;;;4927123;29;20413;-85
2022/09/07 09:54:32;;;;;;;3.63;1.27;;;12.50;99.90;;;;;;4927614;29;20392;-85
2022/09/07 09:57:00;;;;;;;2.40;1.25;;;12.50;99.90;;;;;;4932902;29;20471;-85
2022/09/07 09:59:30;;;;;;;2.88;1.20;;;12.50;99.90;;;;;;4933825;29;20760;-84
2022/09/07 10:02:30;;;;;;;2.03;1.20;;;12.40;99.90;;;;;;4926503;29;20493;-84
2022/09/07 10:05:48;;;;;;;2.70;0.90;;;12.40;99.90;;;;;;4921907;29;20451;-86
2022/09/07 10:08:29;;;;;;;2.00;1.17;;;12.40;99.90;;;;;;4925437;29;20421;-85
2022/09/07 10:11:08;;;;;;;2.08;1.15;;;12.30;99.90;;;;;;4922781;29;20766;-84
2022/09/07 10:13:54;;;;;;;1.20;0.90;;;12.30;99.90;;;;;;4920287;29;20441;-84
2022/09/07 10:16:40;;;;;;;0.85;0.80;;;12.40;99.90;;;;;;4934006;29;20398;-84
2022/09/07 10:19:31;;;;;;;1.50;0.88;;;12.40;99.90;;;;;;4926973;29;20777;-85
2022/09/07 10:22:32;;;;;;;1.02;0.70;;;12.40;99.90;;;;;;4933715;29;20418;-85
2022/09/07 10:25:03;;;;;;;1.60;0.70;;;12.40;99.90;;;;;;4929899;29;20414;-86
2022/09/07 10:27:34;;;;;;;1.80;0.70;;;12.40;99.90;;;;;;4928911;29;20408;-85
2022/09/07 10:30:11;;;;;;;1.20;0.80;;;12.40;99.90;;;;;;4932596;29;20777;-85
2022/09/07 10:32:45;;;;;;;1.92;0.77;;;12.40;99.90;;;;;;4925895;29;20419;-85
2022/09/07 10:35:27;;;;;;;2.10;0.90;;;12.40;99.90;;;;;;4933420;29;20814;-85
2022/09/07 10:38:15;;;;;;;1.47;0.70;;;12.40;99.90;;;;;;4933482;29;20411;-85
2022/09/07 10:40:45;;;;;;;1.48;0.77;;;12.30;99.90;;;;;;4943305;29;20405;-85
2022/09/07 10:43:38;;;;;;;1.42;0.80;;;12.40;99.90;;;;;;4926107;29;20498;-85
2022/09/07 10:46:24;;;;;;;2.90;0.93;;;12.30;99.90;;;;;;4921174;29;20441;-85
2022/09/07 10:49:12;;;;;;;1.58;0.95;;;12.30;99.90;;;;;;4947559;28;20431;-84
2022/09/07 10:51:57;;;;;;;2.97;0.95;;;12.30;99.90;;;;;;4934207;29;20443;-85
2022/09/07 10:54:42;;;;;;;1.30;0.80;;;12.30;99.90;;;;;;4923595;29;20415;-85
2022/09/07 10:57:51;;;;;;;2.10;0.82;;;12.40;99.90;;;;;;4933374;29;20509;-85
2022/09/07 11:00:21;;;;;;;2.25;0.90;;;12.40;99.90;;;;;;4936630;29;20943;-85
2022/09/07 11:03:11;;;;;;;1.00;0.77;;;12.50;99.90;;;;;;4940743;29;20591;-85
2022/09/07 11:06:07;;;;;;;1.15;0.70;;;12.60;99.90;;;;;;4937460;29;20496;-85
2022/09/07 11:09:19;;;;;;;1.33;0.73;;;12.50;99.90;;;;;;4934587;29;20490;-85
2022/09/07 11:11:57;;;;;;;1.65;0.73;;;12.60;99.90;;;;;;4927806;29;20409;-85
2022/09/07 11:14:58;;;;;;;1.08;0.80;;;12.60;99.90;;;;;;4947466;28;20412;-86
2022/09/07 11:17:29;;;;;;;1.60;1.00;;;12.60;99.90;;;;;;4927278;29;20406;-84
2022/09/07 11:20:13;;;;;;;2.10;0.80;;;12.50;99.90;;;;;;4941361;29;20413;-84
2022/09/07 11:22:48;;;;;;;2.63;0.80;;;12.60;99.90;;;;;;4940029;29;20408;-85
2022/09/07 11:25:19;;;;;;;2.90;0.70;;;12.50;99.90;;;;;;4928374;29;20408;-85
2022/09/07 11:28:13;;;;;;;3.40;0.80;;;12.60;99.90;;;;;;4931051;29;20413;-84
2022/09/07 11:30:49;;;;;;;1.23;0.80;;;12.60;99.90;;;;;;4932043;29;20402;-85
2022/09/07 11:33:17;;;;;;;1.40;0.70;;;12.60;99.90;;;;;;4921607;29;20457;-85
2022/09/07 11:35:54;;;;;;;2.60;0.80;;;12.70;99.90;;;;;;4923579;29;20517;-85
2022/09/07 11:38:29;;;;;;;1.38;0.63;;;12.80;99.90;;;;;;4933200;29;20504;-84
2022/09/07 11:41:19;;;;;;;1.42;0.80;;;12.80;99.90;;;;;;4931192;29;20417;-84
2022/09/07 11:44:13;;;;;;;1.52;0.70;;;12.80;99.90;;;;;;4929209;29;20508;-84
2022/09/07 11:46:47;;;;;;;2.13;0.75;;;12.80;99.90;;;;;;4932050;29;20429;-84
2022/09/07 11:49:24;;;;;;;2.33;0.70;;;12.90;99.90;;;;;;4929935;29;20432;-84
2022/09/07 11:51:57;;;;;;;1.67;0.80;;;12.80;99.90;;;;;;4934409;29;20521;-85
2022/09/07 11:54:47;;;;;;;2.75;0.65;;;12.80;99.90;;;;;;4921531;29;20414;-84
2022/09/07 11:57:15;;;;;;;0.50;0.50;;;12.80;99.90;;;;;;4934560;29;20410;-85
2022/09/07 11:59:50;;;;;;;1.60;0.70;;;12.80;99.90;;;;;;4932049;29;20404;-84
2022/09/07 12:02:45;;;;;;;1.35;0.60;;;12.80;99.90;;;;;;4936637;29;20416;-85
2022/09/07 12:05:44;;;;;;;0.98;0.60;;;12.70;99.90;;;;;;4929464;29;20750;-84
2022/09/07 12:08:30;;;;;;;1.00;0.60;;;12.70;99.90;;;;;;4945233;29;20401;-84
2022/09/07 12:11:04;;;;;;;1.90;0.70;;;12.60;99.90;;;;;;4935390;29;20394;-84
2022/09/07 12:13:38;;;;;;;2.10;0.70;;;12.70;99.90;;;;;;4930948;29;20879;-84
2022/09/07 12:16:35;;;;;;;0.90;0.60;;;12.70;99.90;;;;;;4952003;28;20784;-84
2022/09/07 12:19:09;;;;;;;0.95;0.70;;;12.60;99.90;;;;;;4930241;29;20482;-84
2022/09/07 12:21:46;;;;;;;1.23;0.60;;;12.60;99.90;;;;;;4932198;29;20419;-86
2022/09/07 12:24:41;;;;;;;4.30;0.80;;;12.60;99.90;;;;;;4934374;29;20409;-84
2022/09/07 12:27:20;;;;;;;1.80;0.70;;;12.60;99.90;;;;;;4933513;29;20927;-85
2022/09/07 12:30:11;;;;;;;1.17;0.70;;;12.60;99.90;;;;;;4922968;29;20410;-84
2022/09/07 12:32:52;;;;;;;2.07;0.60;;;12.60;99.90;;;;;;4919013;29;20495;-85
2022/09/07 12:35:25;;;;;;;1.60;0.80;;;12.60;99.90;;;;;;4925346;29;20407;-85
2022/09/07 12:37:55;;;;;;;1.15;0.50;;;12.60;99.90;;;;;;4935115;29;20484;-85
2022/09/07 12:40:32;;;;;;;1.70;0.68;;;12.50;99.90;;;;;;4934668;29;20417;-84
2022/09/07 12:43:46;;;;;;;0.75;0.50;;;12.40;99.90;;;;;;4928196;29;20465;-85
2022/09/07 12:46:33;;;;;;;1.20;0.50;;;12.40;99.90;;;;;;4922103;29;20442;-85
2022/09/07 12:49:29;;;;;;;1.00;0.43;;;12.30;99.90;;;;;;4935013;29;20401;-85
2022/09/07 12:52:02;;;;;;;1.58;0.57;;;12.30;99.90;;;;;;4943690;29;20405;-84
2022/09/07 12:55:02;;;;;;;2.70;0.50;;;12.30;99.90;;;;;;4934692;29;20468;-85
2022/09/07 12:58:16;;;;;;;1.50;0.50;;;12.30;99.90;;;;;;4931245;29;20498;-85
2022/09/07 13:00:59;;;;;;;1.00;0.45;;;12.10;99.90;;;;;;4934254;28;20558;-84
2022/09/07 13:03:41;;;;;;;0.80;0.40;;;12.10;99.90;;;;;;4934289;29;20449;-85
2022/09/07 13:06:51;;;;;;;0.95;0.40;;;12.10;99.90;;;;;;4934227;29;20948;-85
2022/09/07 13:09:41;;;;;;;0.75;0.60;;;12.00;99.90;;;;;;4930390;29;20410;-84
2022/09/07 13:12:36;;;;;;;1.77;0.50;;;11.80;99.90;;;;;;4923189;29;20511;-86
2022/09/07 13:15:42;;;;;;;1.90;0.60;;;11.80;99.90;;;;;;4921756;29;20491;-86
2022/09/07 13:18:26;;;;;;;0.68;0.50;;;11.90;99.90;;;;;;4943775;28;20418;-86
2022/09/07 13:21:29;;;;;;;2.30;0.90;;;11.90;99.90;;;;;;4920933;29;20501;-86
2022/09/07 13:24:23;;;;;;;0.70;0.52;;;11.80;99.90;;;;;;4925743;29;20405;-85
2022/09/07 13:27:48;;;;;;;1.33;0.63;;;11.80;99.90;;;;;;4925370;29;20473;-86
2022/09/07 13:30:40;;;;;;;1.25;0.63;;;11.80;99.90;;;;;;4930361;29;20412;-86
2022/09/07 13:33:24;;;;;;;1.33;0.65;;;11.90;99.90;;;;;;4926016;29;20422;-86
2022/09/07 13:35:55;;;;;;;1.80;0.70;;;11.90;99.90;;;;;;4923200;29;21007;-86
2022/09/07 13:38:24;;;;;;;1.38;0.60;;;12.00;99.90;;;;;;4933262;29;20414;-86
2022/09/07 13:40:56;;;;;;;1.50;0.70;;;12.00;99.90;;;;;;4923173;29;20806;-86
2022/09/07 13:43:24;;;;;;;0.80;0.52;;;12.00;99.90;;;;;;4934125;29;20406;-86